• Join FlightAware (Why Join?)
  • Login
  • US Flag 
07:36AM EDT


 

Airport Tracker/Info


-or-


 

Live Flight TrackerFlight Track Log ✈ RPA3496 ✈ 09-May-2014 ✈ KPHL - KPIT

Flight Track Log - Related Links

Times and Time Zones

All times are in EDT time to prevent confusion due to time zone crossing. See the RPA3496 flight status page for this flight to view local times or setup timezone preferences in your user account.

Time Position Orientation Groundspeed Altitude Reporting Facility
EDT Latitude Longitude Course Direction KTS MPH feet Rate Location/Type
03:11PM 39.8833 -75.2333 44° Northeast 136 157 800  Level Philadelphia TRACON
03:13PM 39.9000 -75.1500 75° East 225 259 3,500 2,340 Climbing Philadelphia TRACON
03:14PM 39.8500 -75.0621 90° East  Level FlightAware Approximate
03:15PM 39.8500 -75.0039 90° East  Level FlightAware Approximate
03:15PM 39.9919 -75.1142 17° North 145 167 8,900  Level New York Center
03:16PM 39.8616 -74.9522 44° Northeast  Level FlightAware Approximate
03:16PM 39.9794 -75.2244 262° West 209 241 9,900  Level New York Center
03:17PM 39.8938 -74.9119 44° Northeast  Level FlightAware Approximate
03:17PM 39.9644 -75.3453 261° West 294 338 9,900  Level New York Center
03:18PM 39.9478 -75.4472 258° West 328 377 9,900 960 Level New York Center
03:19PM 39.9403 -75.5819 266° West 334 384 11,900 2,280 Climbing New York Center
03:20PM 39.9419 -75.6933 271° West 340 391 14,500 2,820 Climbing New York Center
03:21PM 39.9442 -75.8369 271° West 361 415 17,600 2,520 Climbing New York Center
03:22PM 39.9472 -75.9589 272° West 370 426 19,600 1,980 Climbing New York Center
03:23PM 39.9514 -76.0975 272° West 377 434 21,600 1,200 Climbing New York Center
03:24PM 39.9525 -76.2572 271° West 399 459 22,000 180 Climbing New York Center
03:25PM 39.9564 -76.3983 272° West 406 467 22,000  Level New York Center
03:26PM 39.9578 -76.5394 271° West 406 467 22,000  Level New York Center
03:27PM 39.9614 -76.6778 272° West 406 467 22,000  Level New York Center
03:28PM 39.9625 -76.8217 271° West 400 460 22,000  Level New York Center
03:29PM 39.9636 -76.9625 271° West 400 460 22,000  Level New York Center
03:30PM 39.9644 -77.1036 270° West 400 460 22,000 -120 Level New York Center
03:31PM 39.9650 -77.2472 270° West 400 460 21,800 -960 Descending New York Center
03:32PM 39.9681 -77.4083 271° West 393 452 20,000 -840 Descending Cleveland Center
03:33PM 39.9692 -77.5486 271° West 391 450 20,000  Level Cleveland Center
03:34PM 39.9694 -77.6897 270° West 391 450 20,000  Level Cleveland Center
03:35PM 39.9700 -77.8281 270° West 389 448 20,000  Level Cleveland Center
03:36PM 39.9697 -77.9600 270° West 370 426 20,000  Level Cleveland Center
03:37PM 39.9858 -78.0994 279° West 335 386 20,000  Level Cleveland Center
03:38PM 40.0025 -78.2189 280° West 335 386 20,000  Level Cleveland Center
03:39PM 40.0181 -78.3258 281° West 335 386 20,000 -60 Level Cleveland Center
03:40PM 40.0364 -78.4667 280° West 334 384 19,900 -660 Descending Cleveland Center
03:41PM 40.0689 -78.5811 290° West 338 389 18,700 -1,140 Descending Cleveland Center
03:42PM 40.0986 -78.6944 289° West 335 386 17,600 -1,080 Descending Cleveland Center
03:43PM 40.1125 -78.8103 279° West 330 380 16,500 -1,080 Descending Cleveland Center
03:44PM 40.1397 -78.9214 288° West 325 374 15,400 -1,260 Descending Cleveland Center
03:45PM 40.1514 -79.0753 276° West 355 409 13,900 -1,380 Descending Cleveland Center
03:46PM 40.1611 -79.1997 276° West 347 399 12,600 -1,200 Descending Cleveland Center
03:48PM 40.1942 -79.3058 292° West 316 364 11,400 -1,140 Descending Cleveland Center
03:49PM 40.2267 -79.4097 292° West 312 359 10,300 -720 Descending Cleveland Center
03:50PM 40.2597 -79.5128 293° West 310 357 10,000 -180 Descending Cleveland Center
03:51PM 40.3097 -79.6028 306° West 321 369 10,000 -540 Level Cleveland Center
03:52PM 40.4100 -79.6592 337° Northwest 329 379 8,900 -1,320 Descending Cleveland Center
03:53PM 40.4658 -79.7292 316° Northwest 292 336 7,300 -1,140 Descending Cleveland Center
03:54PM 40.4736 -79.8122 277° West 228 262 6,600 -840 Descending Cleveland Center
03:55PM 40.4764 -79.8897 273° West 219 252 5,600 -1,020 Descending Cleveland Center
03:56PM 40.4789 -79.9661 272° West 215 247 4,600 -1,020 Descending Cleveland Center
03:57PM 40.4811 -80.0444 272° West 180 207 3,500 -960 Descending Cleveland Center
03:58PM 40.4828 -80.1019 272° West 165 190 2,700 -780 Descending Cleveland Center
03:59PM 40.4839 -80.1492 272° West 142 163 2,000 -660 Descending Cleveland Center
04:00PM 40.4844 -80.1936 271° West 130 150 1,400 -600 Descending Cleveland Center
04:02PM 40.4914 -80.2327 283° West  Level Estimated